sensor_id;sensor_type;location;lat;lon;timestamp;pressure;altitude;pressure_sealevel;temperature;humidity
57628;BME280;43451;49.060;10.616;2023-05-12T00:01:23;96463.56;;;9.92;100.00
57628;BME280;43451;49.060;10.616;2023-05-12T00:03:49;96456.22;;;9.89;100.00
57628;BME280;43451;49.060;10.616;2023-05-12T00:06:17;96451.59;;;9.83;100.00
57628;BME280;43451;49.060;10.616;2023-05-12T00:08:42;96462.84;;;9.81;100.00
57628;BME280;43451;49.060;10.616;2023-05-12T00:11:08;96457.78;;;9.87;100.00
57628;BME280;43451;49.060;10.616;2023-05-12T00:13:33;96448.50;;;9.81;100.00
57628;BME280;43451;49.060;10.616;2023-05-12T00:15:59;96448.06;;;9.89;100.00
57628;BME280;43451;49.060;10.616;2023-05-12T00:18:24;96455.06;;;9.87;100.00
57628;BME280;43451;49.060;10.616;2023-05-12T00:20:50;96456.22;;;9.86;100.00
57628;BME280;43451;49.060;10.616;2023-05-12T00:23:18;96457.00;;;9.86;100.00
57628;BME280;43451;49.060;10.616;2023-05-12T00:25:43;96453.13;;;9.87;100.00
57628;BME280;43451;49.060;10.616;2023-05-12T00:28:08;96457.78;;;9.87;100.00
57628;BME280;43451;49.060;10.616;2023-05-12T00:30:34;96456.22;;;9.86;100.00
57628;BME280;43451;49.060;10.616;2023-05-12T00:32:59;96450.78;;;9.96;100.00
57628;BME280;43451;49.060;10.616;2023-05-12T00:35:24;96453.09;;;9.94;100.00
57628;BME280;43451;49.060;10.616;2023-05-12T00:37:50;96446.13;;;9.93;100.00
57628;BME280;43451;49.060;10.616;2023-05-12T00:40:15;96451.94;;;9.92;100.00
57628;BME280;43451;49.060;10.616;2023-05-12T00:42:40;96450.75;;;10.00;100.00
57628;BME280;43451;49.060;10.616;2023-05-12T00:45:06;96446.13;;;9.93;100.00
57628;BME280;43451;49.060;10.616;2023-05-12T00:47:32;96450.44;;;9.84;100.00
57628;BME280;43451;49.060;10.616;2023-05-12T00:49:57;96447.31;;;9.85;100.00
57628;BME280;43451;49.060;10.616;2023-05-12T00:52:23;96449.25;;;9.85;100.00
57628;BME280;43451;49.060;10.616;2023-05-12T00:54:49;96453.50;;;9.86;100.00
57628;BME280;43451;49.060;10.616;2023-05-12T00:57:15;96448.09;;;9.86;100.00
57628;BME280;43451;49.060;10.616;2023-05-12T00:59:40;96444.59;;;9.85;100.00
57628;BME280;43451;49.060;10.616;2023-05-12T01:02:05;96441.53;;;9.83;100.00
57628;BME280;43451;49.060;10.616;2023-05-12T01:04:31;96451.59;;;9.83;100.00
57628;BME280;43451;49.060;10.616;2023-05-12T01:07:02;96448.50;;;9.81;100.00
57628;BME280;43451;49.060;10.616;2023-05-12T01:09:29;96443.84;;;9.81;100.00
57628;BME280;43451;49.060;10.616;2023-05-12T01:11:54;96443.09;;;9.81;100.00
57628;BME280;43451;49.060;10.616;2023-05-12T01:14:20;96449.66;;;9.80;100.00
57628;BME280;43451;49.060;10.616;2023-05-12T01:16:47;96446.94;;;9.80;100.00
57628;BME280;43451;49.060;10.616;2023-05-12T01:19:18;96442.69;;;9.79;100.00
57628;BME280;43451;49.060;10.616;2023-05-12T01:21:46;96441.50;;;9.80;100.00
57628;BME280;43451;49.060;10.616;2023-05-12T01:24:12;96446.94;;;9.80;100.00
57628;BME280;43451;49.060;10.616;2023-05-12T01:26:39;96446.56;;;9.81;100.00
57628;BME280;43451;49.060;10.616;2023-05-12T01:29:05;96446.56;;;9.81;100.00
57628;BME280;43451;49.060;10.616;2023-05-12T01:31:31;96443.44;;;9.83;100.00
57628;BME280;43451;49.060;10.616;2023-05-12T01:33:57;96442.69;;;9.79;100.00
57628;BME280;43451;49.060;10.616;2023-05-12T01:36:22;96443.88;;;9.77;100.00
57628;BME280;43451;49.060;10.616;2023-05-12T01:38:47;96435.34;;;9.75;100.00
57628;BME280;43451;49.060;10.616;2023-05-12T01:41:13;96446.16;;;9.83;100.00
57628;BME280;43451;49.060;10.616;2023-05-12T01:43:38;96442.31;;;9.80;100.00
57628;BME280;43451;49.060;10.616;2023-05-12T01:46:03;96440.72;;;9.83;100.00
57628;BME280;43451;49.060;10.616;2023-05-12T01:48:29;96444.66;;;9.74;100.00
57628;BME280;43451;49.060;10.616;2023-05-12T01:50:54;96442.31;;;9.73;100.00
57628;BME280;43451;49.060;10.616;2023-05-12T01:53:19;96448.50;;;9.73;100.00
57628;BME280;43451;49.060;10.616;2023-05-12T01:55:45;96455.50;;;9.74;100.00
57628;BME280;43451;49.060;10.616;2023-05-12T01:58:10;96445.00;;;9.76;100.00
57628;BME280;43451;49.060;10.616;2023-05-12T02:00:36;96445.41;;;9.79;100.00
57628;BME280;43451;49.060;10.616;2023-05-12T02:03:01;96450.44;;;9.80;100.00
57628;BME280;43451;49.060;10.616;2023-05-12T02:05:26;96444.25;;;9.83;100.00
57628;BME280;43451;49.060;10.616;2023-05-12T02:07:52;96450.78;;;9.86;100.00
57628;BME280;43451;49.060;10.616;2023-05-12T02:10:17;96452.75;;;9.85;100.00
57628;BME280;43451;49.060;10.616;2023-05-12T02:12:43;96453.50;;;9.89;100.00
57628;BME280;43451;49.060;10.616;2023-05-12T02:15:08;96453.47;;;10.04;100.00
57628;BME280;43451;49.060;10.616;2023-05-12T02:17:34;96448.09;;;9.93;100.00
57628;BME280;43451;49.060;10.616;2023-05-12T02:19:59;96454.66;;;9.92;100.00
57628;BME280;43451;49.060;10.616;2023-05-12T02:22:25;96454.69;;;9.85;100.00
57628;BME280;43451;49.060;10.616;2023-05-12T02:24:50;96450.44;;;9.84;100.00
57628;BME280;43451;49.060;10.616;2023-05-12T02:27:15;96452.34;;;9.90;100.00
57628;BME280;43451;49.060;10.616;2023-05-12T02:29:41;96454.69;;;9.85;100.00
57628;BME280;43451;49.060;10.616;2023-05-12T02:32:06;96450.81;;;9.82;100.00
57628;BME280;43451;49.060;10.616;2023-05-12T02:34:32;96445.41;;;9.75;100.00
57628;BME280;43451;49.060;10.616;2023-05-12T02:36:57;96446.56;;;9.70;100.00
57628;BME280;43451;49.060;10.616;2023-05-12T02:39:23;96447.75;;;9.73;100.00
57628;BME280;43451;49.060;10.616;2023-05-12T02:41:48;96443.09;;;9.73;100.00
57628;BME280;43451;49.060;10.616;2023-05-12T02:44:13;96447.72;;;9.76;100.00
57628;BME280;43451;49.060;10.616;2023-05-12T02:46:40;96442.28;;;9.76;100.00
57628;BME280;43451;49.060;10.616;2023-05-12T02:49:06;96446.56;;;9.77;100.00
57628;BME280;43451;49.060;10.616;2023-05-12T02:51:31;96444.22;;;9.80;100.00
57628;BME280;43451;49.060;10.616;2023-05-12T02:53:56;96444.63;;;9.78;100.00
57628;BME280;43451;49.060;10.616;2023-05-12T02:56:22;96440.75;;;9.75;100.00
57628;BME280;43451;49.060;10.616;2023-05-12T02:58:47;96446.56;;;9.77;100.00
57628;BME280;43451;49.060;10.616;2023-05-12T03:01:12;96443.09;;;9.77;100.00
57628;BME280;43451;49.060;10.616;2023-05-12T03:03:38;96450.06;;;9.78;100.00
57628;BME280;43451;49.060;10.616;2023-05-12T03:06:04;96441.91;;;9.78;100.00
57628;BME280;43451;49.060;10.616;2023-05-12T03:08:30;96437.66;;;9.77;100.00
57628;BME280;43451;49.060;10.616;2023-05-12T03:10:55;96437.66;;;9.73;100.00
57628;BME280;43451;49.060;10.616;2023-05-12T03:13:20;96439.22;;;9.74;100.00
57628;BME280;43451;49.060;10.616;2023-05-12T03:15:46;96438.47;;;9.74;100.00
57628;BME280;43451;49.060;10.616;2023-05-12T03:18:11;96438.06;;;9.72;100.00
57628;BME280;43451;49.060;10.616;2023-05-12T03:20:37;96435.34;;;9.75;100.00
57628;BME280;43451;49.060;10.616;2023-05-12T03:23:02;96433.78;;;9.74;100.00
57628;BME280;43451;49.060;10.616;2023-05-12T03:25:28;96431.09;;;9.74;100.00
57628;BME280;43451;49.060;10.616;2023-05-12T03:27:53;96435.34;;;9.75;100.00
57628;BME280;43451;49.060;10.616;2023-05-12T03:30:18;96432.25;;;9.77;100.00
57628;BME280;43451;49.060;10.616;2023-05-12T03:32:44;96436.13;;;9.72;100.00
57628;BME280;43451;49.060;10.616;2023-05-12T03:35:10;96433.00;;;9.70;100.00
57628;BME280;43451;49.060;10.616;2023-05-12T03:37:35;96434.19;;;9.69;100.00
57628;BME280;43451;49.060;10.616;2023-05-12T03:40:01;96433.00;;;9.70;100.00
57628;BME280;43451;49.060;10.616;2023-05-12T03:42:26;96436.53;;;9.67;100.00
57628;BME280;43451;49.060;10.616;2023-05-12T03:44:52;96432.66;;;9.68;100.00
57628;BME280;43451;49.060;10.616;2023-05-12T03:47:18;96434.19;;;9.69;100.00
57628;BME280;43451;49.060;10.616;2023-05-12T03:49:43;96430.72;;;9.65;100.00
57628;BME280;43451;49.060;10.616;2023-05-12T03:52:08;96432.25;;;9.70;100.00
57628;BME280;43451;49.060;10.616;2023-05-12T03:54:34;96436.91;;;9.69;100.00
57628;BME280;43451;49.060;10.616;2023-05-12T03:57:00;96433.03;;;9.74;100.00
57628;BME280;43451;49.060;10.616;2023-05-12T03:59:25;96433.78;;;9.74;100.00
57628;BME280;43451;49.060;10.616;2023-05-12T04:01:51;96434.94;;;9.73;100.00
57628;BME280;43451;49.060;10.616;2023-05-12T04:04:17;96439.22;;;9.74;100.00
57628;BME280;43451;49.060;10.616;2023-05-12T04:06:43;96437.66;;;9.73;100.00
57628;BME280;43451;49.060;10.616;2023-05-12T04:09:09;96435.28;;;9.90;100.00
57628;BME280;43451;49.060;10.616;2023-05-12T04:11:34;96434.94;;;9.84;100.00
57628;BME280;43451;49.060;10.616;2023-05-12T04:13:59;96431.81;;;9.82;100.00
57628;BME280;43451;49.060;10.616;2023-05-12T04:16:25;96439.19;;;9.82;100.00
57628;BME280;43451;49.060;10.616;2023-05-12T04:18:50;96436.88;;;9.84;100.00
57628;BME280;43451;49.060;10.616;2023-05-12T04:21:15;96437.25;;;9.79;100.00
57628;BME280;43451;49.060;10.616;2023-05-12T04:23:41;96443.44;;;9.83;100.00
57628;BME280;43451;49.060;10.616;2023-05-12T04:26:06;96447.72;;;9.76;100.00
57628;BME280;43451;49.060;10.616;2023-05-12T04:28:31;96445.44;;;9.71;100.00
57628;BME280;43451;49.060;10.616;2023-05-12T04:31:00;96453.97;;;9.66;100.00
57628;BME280;43451;49.060;10.616;2023-05-12T04:33:26;96443.13;;;9.66;100.00
57628;BME280;43451;49.060;10.616;2023-05-12T04:35:54;96451.25;;;9.66;100.00
57628;BME280;43451;49.060;10.616;2023-05-12T04:38:19;96457.84;;;9.65;100.00
57628;BME280;43451;49.060;10.616;2023-05-12T04:40:45;96460.16;;;9.63;100.00
57628;BME280;43451;49.060;10.616;2023-05-12T04:43:10;96466.00;;;9.62;100.00
57628;BME280;43451;49.060;10.616;2023-05-12T04:45:35;96463.66;;;9.60;100.00
57628;BME280;43451;49.060;10.616;2023-05-12T04:48:01;96468.72;;;9.62;100.00
57628;BME280;43451;49.060;10.616;2023-05-12T04:50:26;96465.59;;;9.63;100.00
57628;BME280;43451;49.060;10.616;2023-05-12T04:52:51;96469.88;;;9.64;100.00
57628;BME280;43451;49.060;10.616;2023-05-12T04:55:17;96471.44;;;9.58;100.00
57628;BME280;43451;49.060;10.616;2023-05-12T04:57:42;96474.16;;;9.58;100.00
57628;BME280;43451;49.060;10.616;2023-05-12T05:00:08;96468.72;;;9.58;100.00
57628;BME280;43451;49.060;10.616;2023-05-12T05:02:33;96471.00;;;9.63;100.00
57628;BME280;43451;49.060;10.616;2023-05-12T05:04:59;96477.22;;;9.64;100.00
57628;BME280;43451;49.060;10.616;2023-05-12T05:07:24;96475.66;;;9.63;100.00
57628;BME280;43451;49.060;10.616;2023-05-12T05:09:49;96472.19;;;9.62;100.00
57628;BME280;43451;49.060;10.616;2023-05-12T05:12:15;96481.50;;;9.65;100.00
57628;BME280;43451;49.060;10.616;2023-05-12T05:14:40;96478.38;;;9.66;100.00
57628;BME280;43451;49.060;10.616;2023-05-12T05:17:05;96481.84;;;9.70;100.00
57628;BME280;43451;49.060;10.616;2023-05-12T05:19:32;96482.25;;;9.69;100.00
57628;BME280;43451;49.060;10.616;2023-05-12T05:21:57;96480.28;;;9.84;100.00
57628;BME280;43451;49.060;10.616;2023-05-12T05:24:22;96479.88;;;9.82;100.00
57628;BME280;43451;49.060;10.616;2023-05-12T05:26:48;96478.72;;;9.79;100.00
57628;BME280;43451;49.060;10.616;2023-05-12T05:29:14;96486.88;;;9.79;100.00
57628;BME280;43451;49.060;10.616;2023-05-12T05:31:39;96488.03;;;9.78;100.00
57628;BME280;43451;49.060;10.616;2023-05-12T05:34:04;96484.16;;;9.75;100.00
57628;BME280;43451;49.060;10.616;2023-05-12T05:36:29;96490.34;;;9.76;100.00
57628;BME280;43451;49.060;10.616;2023-05-12T05:38:55;96492.28;;;9.79;100.00
57628;BME280;43451;49.060;10.616;2023-05-12T05:41:20;96484.56;;;9.77;100.00
57628;BME280;43451;49.060;10.616;2023-05-12T05:43:47;96494.63;;;9.81;100.00
57628;BME280;43451;49.060;10.616;2023-05-12T05:46:12;96490.38;;;9.83;100.00
57628;BME280;43451;49.060;10.616;2023-05-12T05:48:37;96489.56;;;9.83;100.00
57628;BME280;43451;49.060;10.616;2023-05-12T05:51:03;96483.00;;;9.84;100.00
57628;BME280;43451;49.060;10.616;2023-05-12T05:53:29;96486.47;;;9.88;100.00
57628;BME280;43451;49.060;10.616;2023-05-12T05:55:55;96491.47;;;9.89;100.00
57628;BME280;43451;49.060;10.616;2023-05-12T05:58:20;96489.50;;;10.08;100.00
57628;BME280;43451;49.060;10.616;2023-05-12T06:00:46;96496.81;;;10.14;100.00
57628;BME280;43451;49.060;10.616;2023-05-12T06:03:11;96495.69;;;10.08;100.00
57628;BME280;43451;49.060;10.616;2023-05-12T06:05:37;96491.84;;;10.02;100.00
57628;BME280;43451;49.060;10.616;2023-05-12T06:08:02;96494.94;;;10.04;100.00
57628;BME280;43451;49.060;10.616;2023-05-12T06:10:29;96501.13;;;10.12;100.00
57628;BME280;43451;49.060;10.616;2023-05-12T06:12:54;96503.06;;;10.15;100.00
57628;BME280;43451;49.060;10.616;2023-05-12T06:15:20;96510.03;;;10.12;100.00
57628;BME280;43451;49.060;10.616;2023-05-12T06:17:46;96506.94;;;10.10;100.00
57628;BME280;43451;49.060;10.616;2023-05-12T06:20:12;96505.75;;;10.18;100.00
57628;BME280;43451;49.060;10.616;2023-05-12T06:22:37;96512.72;;;10.19;100.00
57628;BME280;43451;49.060;10.616;2023-05-12T06:25:03;96510.75;;;10.23;100.00
57628;BME280;43451;49.060;10.616;2023-05-12T06:27:28;96507.28;;;10.19;100.00
57628;BME280;43451;49.060;10.616;2023-05-12T06:29:54;96509.63;;;10.17;100.00
57628;BME280;43451;49.060;10.616;2023-05-12T06:32:19;96515.03;;;10.17;100.00
57628;BME280;43451;49.060;10.616;2023-05-12T06:34:45;96516.59;;;10.26;100.00
57628;BME280;43451;49.060;10.616;2023-05-12T06:37:10;96516.59;;;10.26;100.00
57628;BME280;43451;49.060;10.616;2023-05-12T06:39:36;96513.88;;;10.26;100.00
57628;BME280;43451;49.060;10.616;2023-05-12T06:42:01;96515.81;;;10.25;100.00
57628;BME280;43451;49.060;10.616;2023-05-12T06:44:27;96514.66;;;10.22;100.00
57628;BME280;43451;49.060;10.616;2023-05-12T06:46:52;96513.09;;;10.18;100.00
57628;BME280;43451;49.060;10.616;2023-05-12T06:49:18;96513.13;;;10.14;100.00
57628;BME280;43451;49.060;10.616;2023-05-12T06:51:43;96515.03;;;10.17;100.00
57628;BME280;43451;49.060;10.616;2023-05-12T06:54:09;96511.16;;;10.22;100.00
57628;BME280;43451;49.060;10.616;2023-05-12T06:56:34;96518.13;;;10.23;100.00
57628;BME280;43451;49.060;10.616;2023-05-12T06:59:08;96511.16;;;10.29;100.00
57628;BME280;43451;49.060;10.616;2023-05-12T07:01:33;96509.22;;;10.30;100.00
57628;BME280;43451;49.060;10.616;2023-05-12T07:03:59;96511.88;;;10.44;100.00
57628;BME280;43451;49.060;10.616;2023-05-12T07:06:24;96508.78;;;10.42;100.00
57628;BME280;43451;49.060;10.616;2023-05-12T07:08:53;96511.88;;;10.44;100.00
57628;BME280;43451;49.060;10.616;2023-05-12T07:11:19;96511.09;;;10.47;100.00
57628;BME280;43451;49.060;10.616;2023-05-12T07:13:48;96507.91;;;10.56;100.00
57628;BME280;43451;49.060;10.616;2023-05-12T07:16:14;96523.44;;;10.59;100.00
57628;BME280;43451;49.060;10.616;2023-05-12T07:18:40;96515.25;;;10.69;100.00
57628;BME280;43451;49.060;10.616;2023-05-12T07:21:05;96515.59;;;10.72;100.00
57628;BME280;43451;49.060;10.616;2023-05-12T07:23:31;96517.13;;;10.80;100.00
57628;BME280;43451;49.060;10.616;2023-05-12T07:25:58;96517.84;;;10.84;100.00
57628;BME280;43451;49.060;10.616;2023-05-12T07:28:24;96514.25;;;11.01;100.00
57628;BME280;43451;49.060;10.616;2023-05-12T07:30:49;96521.63;;;11.04;100.00
57628;BME280;43451;49.060;10.616;2023-05-12T07:33:15;96518.78;;;11.19;100.00
57628;BME280;43451;49.060;10.616;2023-05-12T07:35:40;96520.78;;;11.14;100.00
57628;BME280;43451;49.060;10.616;2023-05-12T07:38:06;96520.34;;;11.20;100.00
57628;BME280;43451;49.060;10.616;2023-05-12T07:40:33;96517.88;;;11.36;100.00
57628;BME280;43451;49.060;10.616;2023-05-12T07:42:59;96522.88;;;11.41;100.00
57628;BME280;43451;49.060;10.616;2023-05-12T07:45:24;96518.50;;;11.54;100.00
57628;BME280;43451;49.060;10.616;2023-05-12T07:47:50;96519.59;;;11.60;100.00
57628;BME280;43451;49.060;10.616;2023-05-12T07:50:16;96521.81;;;11.73;100.00
57628;BME280;43451;49.060;10.616;2023-05-12T07:52:45;96509.28;;;11.82;100.00
57628;BME280;43451;49.060;10.616;2023-05-12T07:55:11;96521.47;;;11.71;100.00
57628;BME280;43451;49.060;10.616;2023-05-12T07:57:36;96520.28;;;11.72;100.00
57628;BME280;43451;49.060;10.616;2023-05-12T08:00:02;96516.78;;;11.71;100.00
57628;BME280;43451;49.060;10.616;2023-05-12T08:02:28;96517.94;;;11.74;100.00
57628;BME280;43451;49.060;10.616;2023-05-12T08:04:54;96509.47;;;11.65;100.00
57628;BME280;43451;49.060;10.616;2023-05-12T08:07:19;96511.44;;;11.60;100.00
57628;BME280;43451;49.060;10.616;2023-05-12T08:09:45;96518.78;;;11.67;100.00
57628;BME280;43451;49.060;10.616;2023-05-12T08:12:10;96525.34;;;11.70;100.00
57628;BME280;43451;49.060;10.616;2023-05-12T08:14:35;96520.97;;;11.79;100.00
57628;BME280;43451;49.060;10.616;2023-05-12T08:17:01;96518.13;;;11.97;100.00
57628;BME280;43451;49.060;10.616;2023-05-12T08:19:26;96512.88;;;12.14;100.00
57628;BME280;43451;49.060;10.616;2023-05-12T08:21:51;96508.72;;;12.36;100.00
57628;BME280;43451;49.060;10.616;2023-05-12T08:24:17;96507.03;;;12.46;100.00
57628;BME280;43451;49.060;10.616;2023-05-12T08:26:43;96504.03;;;12.67;100.00
57628;BME280;43451;49.060;10.616;2023-05-12T08:29:08;96511.34;;;12.74;100.00
57628;BME280;43451;49.060;10.616;2023-05-12T08:31:34;96510.13;;;12.78;100.00
57628;BME280;43451;49.060;10.616;2023-05-12T08:33:59;96505.06;;;12.77;100.00
57628;BME280;43451;49.060;10.616;2023-05-12T08:36:25;96511.88;;;12.92;100.00
57628;BME280;43451;49.060;10.616;2023-05-12T08:38:50;96516.38;;;13.02;100.00
57628;BME280;43451;49.060;10.616;2023-05-12T08:41:19;96516.50;;;12.95;100.00
57628;BME280;43451;49.060;10.616;2023-05-12T08:43:50;96509.66;;;12.84;100.00
57628;BME280;43451;49.060;10.616;2023-05-12T08:46:16;96517.63;;;12.71;100.00
57628;BME280;43451;49.060;10.616;2023-05-12T08:48:42;96523.34;;;12.49;100.00
57628;BME280;43451;49.060;10.616;2023-05-12T08:51:09;96525.88;;;12.33;100.00
57628;BME280;43451;49.060;10.616;2023-05-12T08:53:36;96529.41;;;12.30;100.00
57628;BME280;43451;49.060;10.616;2023-05-12T08:56:04;96535.03;;;12.16;100.00
57628;BME280;43451;49.060;10.616;2023-05-12T08:58:30;96532.41;;;12.08;100.00
57628;BME280;43451;49.060;10.616;2023-05-12T09:00:55;96532.44;;;12.01;100.00
57628;BME280;43451;49.060;10.616;2023-05-12T09:03:23;96532.09;;;11.99;100.00
57628;BME280;43451;49.060;10.616;2023-05-12T09:05:51;96536.75;;;12.02;100.00
57628;BME280;43451;49.060;10.616;2023-05-12T09:08:17;96529.25;;;12.10;100.00
57628;BME280;43451;49.060;10.616;2023-05-12T09:10:42;96527.41;;;12.38;100.00
57628;BME280;43451;49.060;10.616;2023-05-12T09:13:16;96532.88;;;12.34;100.00
57628;BME280;43451;49.060;10.616;2023-05-12T09:15:45;96524.19;;;12.43;100.00
57628;BME280;43451;49.060;10.616;2023-05-12T09:18:11;96537.34;;;12.51;100.00
57628;BME280;43451;49.060;10.616;2023-05-12T09:20:36;96528.19;;;12.65;100.00
57628;BME280;43451;49.060;10.616;2023-05-12T09:23:15;96540.59;;;12.70;100.00
57628;BME280;43451;49.060;10.616;2023-05-12T09:25:41;96528.84;;;12.76;100.00
57628;BME280;43451;49.060;10.616;2023-05-12T09:28:06;96535.38;;;12.83;100.00
57628;BME280;43451;49.060;10.616;2023-05-12T09:30:32;96530.50;;;12.97;100.00
57628;BME280;43451;49.060;10.616;2023-05-12T09:33:08;96528.22;;;12.92;100.00
57628;BME280;43451;49.060;10.616;2023-05-12T09:35:38;96537.59;;;12.91;100.00
57628;BME280;43451;49.060;10.616;2023-05-12T09:38:13;96531.28;;;12.98;100.00
57628;BME280;43451;49.060;10.616;2023-05-12T09:40:38;96532.97;;;12.88;100.00
57628;BME280;43451;49.060;10.616;2023-05-12T09:43:04;96537.78;;;12.77;100.00
57628;BME280;43451;49.060;10.616;2023-05-12T09:45:33;96539.91;;;12.62;100.00
57628;BME280;43451;49.060;10.616;2023-05-12T09:48:09;96541.69;;;12.45;100.00
57628;BME280;43451;49.060;10.616;2023-05-12T09:50:56;96545.19;;;12.46;100.00
57628;BME280;43451;49.060;10.616;2023-05-12T09:53:21;96539.44;;;12.37;100.00
57628;BME280;43451;49.060;10.616;2023-05-12T09:55:47;96536.06;;;12.29;100.00
57628;BME280;43451;49.060;10.616;2023-05-12T09:58:16;96538.81;;;12.25;100.00
57628;BME280;43451;49.060;10.616;2023-05-12T10:00:43;96545.59;;;12.44;100.00
57628;BME280;43451;49.060;10.616;2023-05-12T10:03:17;96540.53;;;12.46;100.00
57628;BME280;43451;49.060;10.616;2023-05-12T10:05:47;96545.59;;;12.44;100.00
57628;BME280;43451;49.060;10.616;2023-05-12T10:08:19;96531.88;;;12.51;100.00
57628;BME280;43451;49.060;10.616;2023-05-12T10:10:45;96538.31;;;12.65;100.00
57628;BME280;43451;49.060;10.616;2023-05-12T10:13:13;96532.34;;;12.77;100.00
57628;BME280;43451;49.060;10.616;2023-05-12T10:15:39;96538.56;;;12.77;100.00
57628;BME280;43451;49.060;10.616;2023-05-12T10:18:05;96541.16;;;12.88;100.00
57628;BME280;43451;49.060;10.616;2023-05-12T10:20:30;96542.31;;;12.87;100.00
57628;BME280;43451;49.060;10.616;2023-05-12T10:22:56;96545.63;;;13.02;100.00
57628;BME280;43451;49.060;10.616;2023-05-12T10:25:23;96548.13;;;12.89;100.00
57628;BME280;43451;49.060;10.616;2023-05-12T10:27:48;96552.06;;;12.88;100.00
57628;BME280;43451;49.060;10.616;2023-05-12T10:30:15;96551.06;;;12.75;100.00
57628;BME280;43451;49.060;10.616;2023-05-12T10:32:41;96546.88;;;12.67;100.00
57628;BME280;43451;49.060;10.616;2023-05-12T10:35:07;96555.19;;;12.56;100.00
57628;BME280;43451;49.060;10.616;2023-05-12T10:37:33;96556.03;;;12.49;100.00
57628;BME280;43451;49.060;10.616;2023-05-12T10:39:59;96557.69;;;12.43;100.00
57628;BME280;43451;49.060;10.616;2023-05-12T10:42:35;96556.22;;;12.35;100.00
57628;BME280;43451;49.060;10.616;2023-05-12T10:45:00;96561.47;;;12.19;100.00
57628;BME280;43451;49.060;10.616;2023-05-12T10:47:35;96567.25;;;12.21;100.00
57628;BME280;43451;49.060;10.616;2023-05-12T10:50:01;96572.78;;;12.14;100.00
57628;BME280;43451;49.060;10.616;2023-05-12T10:52:27;96569.34;;;12.10;100.00
57628;BME280;43451;49.060;10.616;2023-05-12T10:54:58;96572.22;;;11.92;100.00
57628;BME280;43451;49.060;10.616;2023-05-12T10:57:24;96583.19;;;11.84;100.00
57628;BME280;43451;49.060;10.616;2023-05-12T10:59:57;96582.81;;;11.79;100.00
57628;BME280;43451;49.060;10.616;2023-05-12T11:02:24;96579.75;;;11.73;100.00
57628;BME280;43451;49.060;10.616;2023-05-12T11:04:54;96573.22;;;11.63;100.00
57628;BME280;43451;49.060;10.616;2023-05-12T11:07:21;96574.78;;;11.65;100.00
57628;BME280;43451;49.060;10.616;2023-05-12T11:09:47;96591.50;;;11.63;100.00
57628;BME280;43451;49.060;10.616;2023-05-12T11:12:12;96582.97;;;11.57;100.00
57628;BME280;43451;49.060;10.616;2023-05-12T11:14:39;96586.09;;;11.59;100.00
57628;BME280;43451;49.060;10.616;2023-05-12T11:17:04;96581.81;;;11.58;100.00
57628;BME280;43451;49.060;10.616;2023-05-12T11:19:30;96587.28;;;11.58;100.00
57628;BME280;43451;49.060;10.616;2023-05-12T11:21:56;96579.47;;;11.64;100.00
57628;BME280;43451;49.060;10.616;2023-05-12T11:24:23;96577.75;;;11.84;100.00
57628;BME280;43451;49.060;10.616;2023-05-12T11:26:48;96581.63;;;11.87;100.00
57628;BME280;43451;49.060;10.616;2023-05-12T11:29:17;96587.84;;;11.84;100.00
57628;BME280;43451;49.060;10.616;2023-05-12T11:31:47;96589.41;;;11.81;100.00
57628;BME280;43451;49.060;10.616;2023-05-12T11:34:13;96588.63;;;11.81;100.00
57628;BME280;43451;49.060;10.616;2023-05-12T11:36:39;96591.44;;;11.74;100.00
57628;BME280;43451;49.060;10.616;2023-05-12T11:39:06;96588.66;;;11.77;100.00
57628;BME280;43451;49.060;10.616;2023-05-12T11:41:37;96592.16;;;11.78;100.00
57628;BME280;43451;49.060;10.616;2023-05-12T11:44:24;96594.91;;;11.74;100.00
57628;BME280;43451;49.060;10.616;2023-05-12T11:49:20;96601.06;;;11.85;100.00
57628;BME280;43451;49.060;10.616;2023-05-12T11:51:46;96597.19;;;11.83;100.00
57628;BME280;43451;49.060;10.616;2023-05-12T11:54:11;96589.63;;;12.01;100.00
57628;BME280;43451;49.060;10.616;2023-05-12T11:56:36;96598.03;;;11.73;100.00
57628;BME280;43451;49.060;10.616;2023-05-12T11:59:02;96600.66;;;11.83;100.00
57628;BME280;43451;49.060;10.616;2023-05-12T12:01:27;96600.22;;;11.92;100.00
57628;BME280;43451;49.060;10.616;2023-05-12T12:03:53;96607.66;;;11.88;100.00
57628;BME280;43451;49.060;10.616;2023-05-12T12:06:19;96611.19;;;11.85;100.00
57628;BME280;43451;49.060;10.616;2023-05-12T12:08:52;96604.09;;;11.95;100.00
57628;BME280;43451;49.060;10.616;2023-05-12T12:11:18;96603.28;;;11.98;100.00
57628;BME280;43451;49.060;10.616;2023-05-12T12:13:47;96602.47;;;12.01;100.00
57628;BME280;43451;49.060;10.616;2023-05-12T12:16:14;96598.91;;;12.07;100.00
57628;BME280;43451;49.060;10.616;2023-05-12T12:18:40;96604.66;;;12.17;100.00
57628;BME280;43451;49.060;10.616;2023-05-12T12:21:05;96607.16;;;12.38;100.00
57628;BME280;43451;49.060;10.616;2023-05-12T12:23:31;96599.06;;;12.31;100.00
57628;BME280;43451;49.060;10.616;2023-05-12T12:25:56;96604.41;;;12.42;100.00
57628;BME280;43451;49.060;10.616;2023-05-12T12:28:21;96602.81;;;12.44;100.00
57628;BME280;43451;49.060;10.616;2023-05-12T12:30:47;96602.00;;;12.47;100.00
57628;BME280;43451;49.060;10.616;2023-05-12T12:33:12;96609.00;;;12.48;100.00
57628;BME280;43451;49.060;10.616;2023-05-12T12:35:37;96603.91;;;12.50;100.00
57628;BME280;43451;49.060;10.616;2023-05-12T12:38:03;96600.25;;;12.64;100.00
57628;BME280;43451;49.060;10.616;2023-05-12T12:40:29;96605.38;;;12.59;100.00
57628;BME280;43451;49.060;10.616;2023-05-12T12:42:54;96610.34;;;12.67;100.00